sensor_id;sensor_type;location;lat;lon;timestamp;pressure;altitude;pressure_sealevel;temperature;humidity
34979;BME280;21185;50.978;13.720;2023-05-20T00:04:33;99023.38;;;14.02;63.94
34979;BME280;21185;50.978;13.720;2023-05-20T00:09:38;99017.22;;;13.95;64.00
34979;BME280;21185;50.978;13.720;2023-05-20T00:14:41;99014.28;;;13.90;64.22
34979;BME280;21185;50.978;13.720;2023-05-20T00:19:42;99021.78;;;13.85;64.37
34979;BME280;21185;50.978;13.720;2023-05-20T00:24:46;99003.19;;;13.80;64.62
34979;BME280;21185;50.978;13.720;2023-05-20T00:29:48;98997.97;;;13.80;64.54
34979;BME280;21185;50.978;13.720;2023-05-20T00:34:57;99004.50;;;13.84;64.72
34979;BME280;21185;50.978;13.720;2023-05-20T00:39:59;99006.13;;;13.85;64.45
34979;BME280;21185;50.978;13.720;2023-05-20T00:45:01;99000.09;;;13.84;64.48
34979;BME280;21185;50.978;13.720;2023-05-20T00:50:04;99003.69;;;13.83;64.70
34979;BME280;21185;50.978;13.720;2023-05-20T00:55:07;99005.47;;;13.83;64.48
34979;BME280;21185;50.978;13.720;2023-05-20T01:00:10;99010.69;;;13.83;64.66
34979;BME280;21185;50.978;13.720;2023-05-20T01:05:12;99016.06;;;13.81;64.72
34979;BME280;21185;50.978;13.720;2023-05-20T01:10:14;99023.09;;;13.81;64.77
34979;BME280;21185;50.978;13.720;2023-05-20T01:15:17;99013.97;;;13.77;64.70
34979;BME280;21185;50.978;13.720;2023-05-20T01:20:24;99011.69;;;13.66;64.99
34979;BME280;21185;50.978;13.720;2023-05-20T01:25:29;99017.06;;;13.56;64.98
34979;BME280;21185;50.978;13.720;2023-05-20T01:30:35;99008.25;;;13.49;65.00
34979;BME280;21185;50.978;13.720;2023-05-20T01:35:41;99019.84;;;13.46;65.00
34979;BME280;21185;50.978;13.720;2023-05-20T01:40:45;99012.34;;;13.43;65.16
34979;BME280;21185;50.978;13.720;2023-05-20T01:45:48;99015.09;;;13.42;65.04
34979;BME280;21185;50.978;13.720;2023-05-20T01:50:52;99015.28;;;13.40;65.15
34979;BME280;21185;50.978;13.720;2023-05-20T01:55:55;99011.69;;;13.41;65.08
34979;BME280;21185;50.978;13.720;2023-05-20T02:00:58;99010.06;;;13.40;65.07
34979;BME280;21185;50.978;13.720;2023-05-20T02:06:01;99011.03;;;13.39;64.76
34979;BME280;21185;50.978;13.720;2023-05-20T02:11:06;99007.78;;;13.37;64.96
34979;BME280;21185;50.978;13.720;2023-05-20T02:16:08;99011.69;;;13.33;64.86
34979;BME280;21185;50.978;13.720;2023-05-20T02:21:10;99008.25;;;13.24;64.96
34979;BME280;21185;50.978;13.720;2023-05-20T02:26:12;98998.25;;;13.12;65.21
34979;BME280;21185;50.978;13.720;2023-05-20T02:31:14;98995.97;;;13.01;65.32
34979;BME280;21185;50.978;13.720;2023-05-20T02:36:17;98994.34;;;13.00;65.54
34979;BME280;21185;50.978;13.720;2023-05-20T02:41:19;98989.28;;;13.06;65.52
34979;BME280;21185;50.978;13.720;2023-05-20T02:46:22;98992.91;;;13.13;65.37
34979;BME280;21185;50.978;13.720;2023-05-20T02:51:24;98983.66;;;13.19;65.34
34979;BME280;21185;50.978;13.720;2023-05-20T02:56:26;98970.91;;;13.16;65.52
34979;BME280;21185;50.978;13.720;2023-05-20T03:01:29;98971.22;;;13.13;65.84
34979;BME280;21185;50.978;13.720;2023-05-20T03:06:31;98969.44;;;13.13;65.85
34979;BME280;21185;50.978;13.720;2023-05-20T03:11:35;98968.31;;;13.16;65.98
34979;BME280;21185;50.978;13.720;2023-05-20T03:16:37;98968.00;;;13.19;66.09
34979;BME280;21185;50.978;13.720;2023-05-20T03:21:39;98960.03;;;13.20;66.16
34979;BME280;21185;50.978;13.720;2023-05-20T03:26:42;98976.16;;;13.24;66.21
34979;BME280;21185;50.978;13.720;2023-05-20T03:31:44;98972.91;;;13.30;66.01
34979;BME280;21185;50.978;13.720;2023-05-20T03:36:50;98980.41;;;13.33;66.25
34979;BME280;21185;50.978;13.720;2023-05-20T03:41:53;98975.50;;;13.38;66.25
34979;BME280;21185;50.978;13.720;2023-05-20T03:46:55;98979.75;;;13.39;66.26
34979;BME280;21185;50.978;13.720;2023-05-20T03:51:57;98983.81;;;13.42;66.37
34979;BME280;21185;50.978;13.720;2023-05-20T03:56:59;98978.13;;;13.46;66.58
34979;BME280;21185;50.978;13.720;2023-05-20T04:02:02;98979.59;;;13.49;66.57
34979;BME280;21185;50.978;13.720;2023-05-20T04:07:04;98982.84;;;13.51;66.48
34979;BME280;21185;50.978;13.720;2023-05-20T04:12:09;98972.25;;;13.52;66.60
34979;BME280;21185;50.978;13.720;2023-05-20T04:17:12;98985.78;;;13.56;66.71
34979;BME280;21185;50.978;13.720;2023-05-20T04:22:14;98980.06;;;13.52;66.77
34979;BME280;21185;50.978;13.720;2023-05-20T04:27:16;98980.41;;;13.49;66.94
34979;BME280;21185;50.978;13.720;2023-05-20T04:32:19;98981.72;;;13.45;67.10
34979;BME280;21185;50.978;13.720;2023-05-20T04:37:22;98990.19;;;13.47;67.37
34979;BME280;21185;50.978;13.720;2023-05-20T04:42:24;98984.00;;;13.48;67.32
34979;BME280;21185;50.978;13.720;2023-05-20T04:47:27;98984.63;;;13.50;67.43
34979;BME280;21185;50.978;13.720;2023-05-20T04:52:32;98992.47;;;13.50;67.50
34979;BME280;21185;50.978;13.720;2023-05-20T04:57:34;98984.47;;;13.52;67.81
34979;BME280;21185;50.978;13.720;2023-05-20T05:02:40;98976.81;;;13.50;67.89
34979;BME280;21185;50.978;13.720;2023-05-20T05:07:42;98970.78;;;13.50;68.07
34979;BME280;21185;50.978;13.720;2023-05-20T05:12:45;98978.13;;;13.54;68.21
34979;BME280;21185;50.978;13.720;2023-05-20T05:17:52;98965.72;;;13.56;68.47
34979;BME280;21185;50.978;13.720;2023-05-20T05:22:57;98972.91;;;13.54;68.46
34979;BME280;21185;50.978;13.720;2023-05-20T05:27:59;98973.22;;;13.51;68.68
34979;BME280;21185;50.978;13.720;2023-05-20T05:33:02;98976.16;;;13.56;68.71
34979;BME280;21185;50.978;13.720;2023-05-20T05:38:04;98975.84;;;13.59;68.86
34979;BME280;21185;50.978;13.720;2023-05-20T05:43:09;98983.50;;;13.61;69.02
34979;BME280;21185;50.978;13.720;2023-05-20T05:48:20;98982.50;;;13.62;69.49
34979;BME280;21185;50.978;13.720;2023-05-20T05:53:23;98979.41;;;13.67;69.45
34979;BME280;21185;50.978;13.720;2023-05-20T05:58:27;98970.13;;;13.72;69.23
34979;BME280;21185;50.978;13.720;2023-05-20T06:03:29;98967.34;;;13.74;69.35
34979;BME280;21185;50.978;13.720;2023-05-20T06:08:31;98970.09;;;13.80;69.38
34979;BME280;21185;50.978;13.720;2023-05-20T06:13:35;98970.56;;;13.92;69.31
34979;BME280;21185;50.978;13.720;2023-05-20T06:18:37;98978.06;;;13.95;69.43
34979;BME280;21185;50.978;13.720;2023-05-20T06:23:40;98970.88;;;14.05;69.53
34979;BME280;21185;50.978;13.720;2023-05-20T06:28:44;98970.03;;;14.13;69.60
34979;BME280;21185;50.978;13.720;2023-05-20T06:33:47;98964.97;;;14.11;69.51
34979;BME280;21185;50.978;13.720;2023-05-20T06:38:52;98972.16;;;14.09;69.96
34979;BME280;21185;50.978;13.720;2023-05-20T06:43:54;98971.66;;;14.14;69.84
34979;BME280;21185;50.978;13.720;2023-05-20T06:49:19;98967.22;;;14.22;70.05
34979;BME280;21185;50.978;13.720;2023-05-20T06:54:22;98956.59;;;14.32;69.96
34979;BME280;21185;50.978;13.720;2023-05-20T06:59:24;98944.66;;;14.38;70.27
34979;BME280;21185;50.978;13.720;2023-05-20T07:04:28;98941.69;;;14.49;70.23
34979;BME280;21185;50.978;13.720;2023-05-20T07:09:31;98937.72;;;14.61;70.17
34979;BME280;21185;50.978;13.720;2023-05-20T07:14:37;98933.44;;;14.68;70.27
34979;BME280;21185;50.978;13.720;2023-05-20T07:19:40;98928.16;;;14.76;70.22
34979;BME280;21185;50.978;13.720;2023-05-20T07:24:44;98934.63;;;14.88;70.14
34979;BME280;21185;50.978;13.720;2023-05-20T07:29:47;98932.25;;;15.02;70.00
34979;BME280;21185;50.978;13.720;2023-05-20T07:34:50;98922.31;;;15.20;69.94
34979;BME280;21185;50.978;13.720;2023-05-20T07:39:53;98927.13;;;15.31;69.91
34979;BME280;21185;50.978;13.720;2023-05-20T07:44:55;98921.28;;;15.44;69.85
34979;BME280;21185;50.978;13.720;2023-05-20T07:50:02;98919.88;;;15.71;69.76
34979;BME280;21185;50.978;13.720;2023-05-20T07:55:15;98914.19;;;16.11;69.51
34979;BME280;21185;50.978;13.720;2023-05-20T08:00:28;98914.00;;;16.28;69.39
34979;BME280;21185;50.978;13.720;2023-05-20T08:05:40;98903.31;;;16.44;69.12
34979;BME280;21185;50.978;13.720;2023-05-20T08:10:44;98900.06;;;16.42;69.17
34979;BME280;21185;50.978;13.720;2023-05-20T08:15:46;98893.31;;;16.33;69.32
34979;BME280;21185;50.978;13.720;2023-05-20T08:20:49;98903.25;;;16.23;69.42
34979;BME280;21185;50.978;13.720;2023-05-20T08:25:52;98890.34;;;16.21;69.74
34979;BME280;21185;50.978;13.720;2023-05-20T08:31:00;98881.59;;;16.14;69.54
34979;BME280;21185;50.978;13.720;2023-05-20T08:36:04;98887.22;;;16.11;69.68
34979;BME280;21185;50.978;13.720;2023-05-20T08:41:07;98884.56;;;16.26;69.84
34979;BME280;21185;50.978;13.720;2023-05-20T08:46:14;98865.22;;;16.63;69.01
34979;BME280;21185;50.978;13.720;2023-05-20T08:51:20;98863.91;;;16.88;69.03
34979;BME280;21185;50.978;13.720;2023-05-20T08:56:26;98848.34;;;17.36;68.61
34979;BME280;21185;50.978;13.720;2023-05-20T09:01:32;98859.72;;;17.49;68.40
34979;BME280;21185;50.978;13.720;2023-05-20T09:06:45;98856.94;;;17.86;68.37
34979;BME280;21185;50.978;13.720;2023-05-20T09:11:50;98852.72;;;17.91;68.25
34979;BME280;21185;50.978;13.720;2023-05-20T09:16:52;98846.31;;;18.00;68.04
34979;BME280;21185;50.978;13.720;2023-05-20T09:21:56;98849.78;;;18.07;68.10
34979;BME280;21185;50.978;13.720;2023-05-20T09:26:59;98851.00;;;18.11;68.19
34979;BME280;21185;50.978;13.720;2023-05-20T09:32:03;98849.78;;;18.07;68.22
34979;BME280;21185;50.978;13.720;2023-05-20T09:37:06;98842.75;;;18.21;67.90
34979;BME280;21185;50.978;13.720;2023-05-20T09:42:23;98844.97;;;18.18;68.21
34979;BME280;21185;50.978;13.720;2023-05-20T09:47:27;98842.13;;;18.12;68.26
34979;BME280;21185;50.978;13.720;2023-05-20T09:52:30;98833.78;;;18.02;67.77
34979;BME280;21185;50.978;13.720;2023-05-20T09:57:33;98822.31;;;18.10;67.73
34979;BME280;21185;50.978;13.720;2023-05-20T10:02:47;98822.38;;;18.30;67.68
34979;BME280;21185;50.978;13.720;2023-05-20T10:19:27;98806.44;;;18.51;67.22
34979;BME280;21185;50.978;13.720;2023-05-20T10:24:39;98805.66;;;18.57;67.08
34979;BME280;21185;50.978;13.720;2023-05-20T10:29:50;98791.69;;;18.57;67.24
34979;BME280;21185;50.978;13.720;2023-05-20T10:34:58;98791.75;;;18.70;67.17
34979;BME280;21185;50.978;13.720;2023-05-20T10:40:12;98792.16;;;18.87;66.92
34979;BME280;21185;50.978;13.720;2023-05-20T10:45:27;98787.50;;;18.89;66.56
34979;BME280;21185;50.978;13.720;2023-05-20T10:50:37;98787.91;;;18.79;67.14
34979;BME280;21185;50.978;13.720;2023-05-20T10:55:48;98773.94;;;18.85;67.10
34979;BME280;21185;50.978;13.720;2023-05-20T11:00:53;98761.59;;;18.99;66.95
34979;BME280;21185;50.978;13.720;2023-05-20T11:05:58;98764.63;;;19.09;66.70
34979;BME280;21185;50.978;13.720;2023-05-20T11:11:00;98768.44;;;19.20;66.87
34979;BME280;21185;50.978;13.720;2023-05-20T11:16:03;98763.00;;;19.15;66.74
34979;BME280;21185;50.978;13.720;2023-05-20T11:21:06;98766.84;;;19.19;66.89
34979;BME280;21185;50.978;13.720;2023-05-20T11:26:08;98762.56;;;19.31;66.30
34979;BME280;21185;50.978;13.720;2023-05-20T11:34:34;98749.38;;;19.37;66.17
34979;BME280;21185;50.978;13.720;2023-05-20T11:39:37;98751.22;;;19.37;66.49
34979;BME280;21185;50.978;13.720;2023-05-20T11:44:42;98731.16;;;19.42;66.16
34979;BME280;21185;50.978;13.720;2023-05-20T11:49:49;98730.09;;;19.50;66.10
34979;BME280;21185;50.978;13.720;2023-05-20T11:54:52;98726.84;;;19.61;66.22
34979;BME280;21185;50.978;13.720;2023-05-20T11:59:54;98719.59;;;19.57;66.12
34979;BME280;21185;50.978;13.720;2023-05-20T12:04:57;98726.53;;;19.25;66.76
34979;BME280;21185;50.978;13.720;2023-05-20T12:10:03;98716.44;;;19.22;66.12
34979;BME280;21185;50.978;13.720;2023-05-20T12:15:07;98710.72;;;19.38;66.26
34979;BME280;21185;50.978;13.720;2023-05-20T12:20:11;98699.38;;;19.37;66.77
34979;BME280;21185;50.978;13.720;2023-05-20T12:25:19;98696.06;;;19.62;66.26
34979;BME280;21185;50.978;13.720;2023-05-20T12:30:23;98681.38;;;19.86;66.34
34979;BME280;21185;50.978;13.720;2023-05-20T12:35:36;98680.72;;;19.90;66.30
34979;BME280;21185;50.978;13.720;2023-05-20T12:40:38;98668.31;;;19.66;66.23
34979;BME280;21185;50.978;13.720;2023-05-20T12:45:43;98654.00;;;19.49;66.34
34979;BME280;21185;50.978;13.720;2023-05-20T12:50:45;98652.19;;;19.42;66.51
34979;BME280;21185;50.978;13.720;2023-05-20T12:55:48;98652.34;;;19.61;66.43
34979;BME280;21185;50.978;13.720;2023-05-20T13:00:50;98666.88;;;19.70;66.37
34979;BME280;21185;50.978;13.720;2023-05-20T13:05:52;98646.50;;;19.90;65.99
34979;BME280;21185;50.978;13.720;2023-05-20T13:10:54;98646.06;;;19.93;65.93
34979;BME280;21185;50.978;13.720;2023-05-20T13:15:57;98643.94;;;19.77;65.98
34979;BME280;21185;50.978;13.720;2023-05-20T13:20:59;98637.25;;;19.81;66.13
34979;BME280;21185;50.978;13.720;2023-05-20T13:26:02;98635.16;;;19.90;66.19
34979;BME280;21185;50.978;13.720;2023-05-20T13:31:05;98627.47;;;19.88;65.86
34979;BME280;21185;50.978;13.720;2023-05-20T13:36:09;98627.91;;;19.85;65.73
34979;BME280;21185;50.978;13.720;2023-05-20T13:41:13;98609.47;;;19.85;65.80
34979;BME280;21185;50.978;13.720;2023-05-20T13:46:16;98613.75;;;19.80;66.22
34979;BME280;21185;50.978;13.720;2023-05-20T13:51:18;98606.06;;;19.78;66.19
34979;BME280;21185;50.978;13.720;2023-05-20T13:56:21;98610.06;;;19.87;65.72
34979;BME280;21185;50.978;13.720;2023-05-20T14:01:29;98601.56;;;19.85;65.84
34979;BME280;21185;50.978;13.720;2023-05-20T14:06:38;98594.50;;;19.79;66.05
34979;BME280;21185;50.978;13.720;2023-05-20T14:11:41;98592.13;;;19.71;65.66
34979;BME280;21185;50.978;13.720;2023-05-20T14:16:52;98592.78;;;19.66;66.04
34979;BME280;21185;50.978;13.720;2023-05-20T14:21:58;98578.81;;;19.66;65.70
34979;BME280;21185;50.978;13.720;2023-05-20T14:27:02;98578.16;;;19.70;65.89
34979;BME280;21185;50.978;13.720;2023-05-20T14:32:05;98575.13;;;19.73;65.35
34979;BME280;21185;50.978;13.720;2023-05-20T14:37:08;98573.13;;;19.69;65.28
34979;BME280;21185;50.978;13.720;2023-05-20T14:42:10;98575.16;;;19.67;65.62
34979;BME280;21185;50.978;13.720;2023-05-20T14:47:13;98568.50;;;19.64;65.53
34979;BME280;21185;50.978;13.720;2023-05-20T14:52:20;98569.28;;;19.65;65.71
34979;BME280;21185;50.978;13.720;2023-05-20T14:57:23;98576.19;;;19.66;65.71
34979;BME280;21185;50.978;13.720;2023-05-20T15:02:25;98582.47;;;19.65;65.52
34979;BME280;21185;50.978;13.720;2023-05-20T15:07:28;98577.78;;;19.67;65.67
34979;BME280;21185;50.978;13.720;2023-05-20T15:12:30;98566.41;;;19.73;65.39
34979;BME280;21185;50.978;13.720;2023-05-20T15:17:32;98566.09;;;19.88;65.26
34979;BME280;21185;50.978;13.720;2023-05-20T15:22:34;98553.72;;;19.88;65.49
34979;BME280;21185;50.978;13.720;2023-05-20T15:27:36;98550.06;;;19.89;65.58
34979;BME280;21185;50.978;13.720;2023-05-20T15:32:38;98547.28;;;19.84;65.49
34979;BME280;21185;50.978;13.720;2023-05-20T15:37:42;98547.34;;;19.78;65.83
34979;BME280;21185;50.978;13.720;2023-05-20T15:42:44;98547.97;;;19.73;65.91
34979;BME280;21185;50.978;13.720;2023-05-20T15:47:48;98536.25;;;19.69;65.61
34979;BME280;21185;50.978;13.720;2023-05-20T15:52:51;98523.53;;;19.66;65.77
34979;BME280;21185;50.978;13.720;2023-05-20T15:57:53;98527.59;;;19.62;65.87
34979;BME280;21185;50.978;13.720;2023-05-20T16:02:55;98537.38;;;19.55;65.88
34979;BME280;21185;50.978;13.720;2023-05-20T16:07:58;98536.97;;;19.51;65.63
34979;BME280;21185;50.978;13.720;2023-05-20T16:13:01;98532.69;;;19.57;65.41
34979;BME280;21185;50.978;13.720;2023-05-20T16:18:03;98528.34;;;19.69;65.43
34979;BME280;21185;50.978;13.720;2023-05-20T16:23:06;98528.75;;;19.72;65.18
34979;BME280;21185;50.978;13.720;2023-05-20T16:28:09;98530.41;;;19.67;65.22
34979;BME280;21185;50.978;13.720;2023-05-20T16:33:11;98534.09;;;19.59;65.00
34979;BME280;21185;50.978;13.720;2023-05-20T16:38:14;98533.53;;;19.51;65.28
34979;BME280;21185;50.978;13.720;2023-05-20T16:43:16;98538.25;;;19.42;65.00
34979;BME280;21185;50.978;13.720;2023-05-20T16:48:22;98528.78;;;19.34;65.06
34979;BME280;21185;50.978;13.720;2023-05-20T16:53:24;98529.19;;;19.31;65.45
34979;BME280;21185;50.978;13.720;2023-05-20T16:58:26;98528.59;;;19.29;65.02
34979;BME280;21185;50.978;13.720;2023-05-20T17:03:30;98536.50;;;19.29;65.03
34979;BME280;21185;50.978;13.720;2023-05-20T17:08:32;98536.69;;;19.28;65.34
34979;BME280;21185;50.978;13.720;2023-05-20T17:13:38;98537.72;;;19.27;65.11
34979;BME280;21185;50.978;13.720;2023-05-20T17:18:42;98548.44;;;19.25;65.33
34979;BME280;21185;50.978;13.720;2023-05-20T17:23:45;98538.34;;;19.22;65.15
34979;BME280;21185;50.978;13.720;2023-05-20T17:28:48;98548.69;;;19.17;65.68
34979;BME280;21185;50.978;13.720;2023-05-20T17:33:50;98542.66;;;19.10;65.23
34979;BME280;21185;50.978;13.720;2023-05-20T17:38:54;98556.88;;;19.02;65.61
34979;BME280;21185;50.978;13.720;2023-05-20T17:43:56;98558.13;;;18.93;65.29
34979;BME280;21185;50.978;13.720;2023-05-20T17:48:58;98559.16;;;18.86;65.38
34979;BME280;21185;50.978;13.720;2023-05-20T17:54:00;98567.06;;;18.79;65.44
34979;BME280;21185;50.978;13.720;2023-05-20T17:59:03;98571.34;;;18.73;65.37
34979;BME280;21185;50.978;13.720;2023-05-20T18:04:05;98575.59;;;18.68;65.77
34979;BME280;21185;50.978;13.720;2023-05-20T18:09:07;98588.75;;;18.61;65.39
34979;BME280;21185;50.978;13.720;2023-05-20T18:14:10;98584.28;;;18.55;65.62
34979;BME280;21185;50.978;13.720;2023-05-20T18:19:12;98588.16;;;18.46;65.82
34979;BME280;21185;50.978;13.720;2023-05-20T18:24:16;98588.78;;;18.35;65.54
34979;BME280;21185;50.978;13.720;2023-05-20T18:29:23;98590.19;;;18.24;66.01
34979;BME280;21185;50.978;13.720;2023-05-20T18:34:27;98602.53;;;18.17;65.94
34979;BME280;21185;50.978;13.720;2023-05-20T18:39:29;98606.16;;;18.09;66.02
34979;BME280;21185;50.978;13.720;2023-05-20T18:44:31;98601.72;;;18.03;66.15
34979;BME280;21185;50.978;13.720;2023-05-20T18:49:39;98608.78;;;17.96;65.99
34979;BME280;21185;50.978;13.720;2023-05-20T18:54:41;98603.72;;;17.88;65.97
34979;BME280;21185;50.978;13.720;2023-05-20T18:59:43;98612.81;;;17.79;66.33
34979;BME280;21185;50.978;13.720;2023-05-20T19:04:50;98622.28;;;17.73;66.68
34979;BME280;21185;50.978;13.720;2023-05-20T19:09:53;98629.13;;;17.68;66.17
34979;BME280;21185;50.978;13.720;2023-05-20T19:14:56;98632.72;;;17.60;66.55
34979;BME280;21185;50.978;13.720;2023-05-20T19:19:58;98620.59;;;17.53;66.55
34979;BME280;21185;50.978;13.720;2023-05-20T19:25:00;98623.38;;;17.44;66.50
34979;BME280;21185;50.978;13.720;2023-05-20T19:30:03;98621.75;;;17.37;66.77
34979;BME280;21185;50.978;13.720;2023-05-20T19:35:05;98616.88;;;17.27;66.67
34979;BME280;21185;50.978;13.720;2023-05-20T19:40:09;98634.00;;;17.23;66.81
34979;BME280;21185;50.978;13.720;2023-05-20T19:45:11;98629.78;;;17.22;66.71
34979;BME280;21185;50.978;13.720;2023-05-20T19:50:13;98630.34;;;17.17;66.74
34979;BME280;21185;50.978;13.720;2023-05-20T19:55:15;98641.44;;;17.13;66.74
34979;BME280;21185;50.978;13.720;2023-05-20T20:00:19;98637.34;;;17.04;66.73
34979;BME280;21185;50.978;13.720;2023-05-20T20:05:22;98637.13;;;16.99;66.36
34979;BME280;21185;50.978;13.720;2023-05-20T20:10:27;98623.19;;;16.92;66.35
34979;BME280;21185;50.978;13.720;2023-05-20T20:15:31;98614.47;;;16.84;66.48
34979;BME280;21185;50.978;13.720;2023-05-20T20:20:34;98616.66;;;16.81;66.67
34979;BME280;21185;50.978;13.720;2023-05-20T20:25:40;98627.34;;;16.79;66.68
34979;BME280;21185;50.978;13.720;2023-05-20T20:30:44;98612.22;;;16.81;66.61
34979;BME280;21185;50.978;13.720;2023-05-20T20:35:46;98623.94;;;16.86;66.55
34979;BME280;21185;50.978;13.720;2023-05-20T20:40:49;98626.19;;;16.89;66.33
34979;BME280;21185;50.978;13.720;2023-05-20T20:46:01;98627.19;;;16.88;66.59
34979;BME280;21185;50.978;13.720;2023-05-20T20:51:04;98628.78;;;16.82;66.22
34979;BME280;21185;50.978;13.720;2023-05-20T20:56:10;98622.28;;;16.78;66.42
34979;BME280;21185;50.978;13.720;2023-05-20T21:01:12;98621.88;;;16.74;66.51
34979;BME280;21185;50.978;13.720;2023-05-20T21:06:18;98611.97;;;16.70;66.23
34979;BME280;21185;50.978;13.720;2023-05-20T21:11:21;98616.78;;;16.66;66.40
34979;BME280;21185;50.978;13.720;2023-05-20T21:16:23;98616.53;;;16.61;66.34
34979;BME280;21185;50.978;13.720;2023-05-20T21:21:25;98606.63;;;16.57;66.58
34979;BME280;21185;50.978;13.720;2023-05-20T21:26:27;98603.16;;;16.49;66.60
34979;BME280;21185;50.978;13.720;2023-05-20T21:31:29;98602.09;;;16.44;66.71
34979;BME280;21185;50.978;13.720;2023-05-20T21:36:31;98601.47;;;16.42;66.54
34979;BME280;21185;50.978;13.720;2023-05-20T21:41:33;98598.63;;;16.37;66.78
34979;BME280;21185;50.978;13.720;2023-05-20T21:46:35;98589.53;;;16.33;66.75
34979;BME280;21185;50.978;13.720;2023-05-20T21:51:41;98592.53;;;16.30;66.73
34979;BME280;21185;50.978;13.720;2023-05-20T21:56:48;98588.50;;;16.27;66.93
34979;BME280;21185;50.978;13.720;2023-05-20T22:01:50;98589.44;;;16.19;67.28
34979;BME280;21185;50.978;13.720;2023-05-20T22:06:52;98583.34;;;16.12;67.26
34979;BME280;21185;50.978;13.720;2023-05-20T22:11:54;98581.91;;;16.10;67.38
34979;BME280;21185;50.978;13.720;2023-05-20T22:17:04;98582.09;;;16.08;67.60
34979;BME280;21185;50.978;13.720;2023-05-20T22:22:06;98583.72;;;16.09;67.36
34979;BME280;21185;50.978;13.720;2023-05-20T22:27:08;98576.69;;;16.10;67.57
34979;BME280;21185;50.978;13.720;2023-05-20T22:32:10;98572.25;;;16.10;67.33
34979;BME280;21185;50.978;13.720;2023-05-20T22:37:12;98563.78;;;16.08;67.34
34979;BME280;21185;50.978;13.720;2023-05-20T22:42:15;98558.94;;;16.05;67.22
34979;BME280;21185;50.978;13.720;2023-05-20T22:47:17;98560.94;;;16.03;67.22
34979;BME280;21185;50.978;13.720;2023-05-20T22:52:21;98567.97;;;16.03;67.35
34979;BME280;21185;50.978;13.720;2023-05-20T22:57:26;98562.31;;;15.99;67.24
34979;BME280;21185;50.978;13.720;2023-05-20T23:02:28;98562.06;;;15.94;67.21
34979;BME280;21185;50.978;13.720;2023-05-20T23:07:35;98558.59;;;15.87;67.11
34979;BME280;21185;50.978;13.720;2023-05-20T23:12:37;98560.75;;;15.83;66.76
34979;BME280;21185;50.978;13.720;2023-05-20T23:17:39;98559.34;;;15.81;67.04
34979;BME280;21185;50.978;13.720;2023-05-20T23:22:41;98559.53;;;15.79;67.20
34979;BME280;21185;50.978;13.720;2023-05-20T23:27:43;98552.25;;;15.75;66.91
34979;BME280;21185;50.978;13.720;2023-05-20T23:32:45;98549.38;;;15.70;67.04
34979;BME280;21185;50.978;13.720;2023-05-20T23:37:47;98550.94;;;15.64;67.13
34979;BME280;21185;50.978;13.720;2023-05-20T23:42:49;98552.13;;;15.62;67.04
34979;BME280;21185;50.978;13.720;2023-05-20T23:47:51;98542.88;;;15.59;67.15
34979;BME280;21185;50.978;13.720;2023-05-20T23:52:54;98535.56;;;15.54;67.01
34979;BME280;21185;50.978;13.720;2023-05-20T23:57:56;98534.31;;;15.50;67.03
